sensor_id;sensor_type;location;lat;lon;timestamp;pressure;altitude;pressure_sealevel;temperature;humidity
14383;BME280;7275;50.328;8.720;2023-12-04T00:01:17;100007.25;;;5.02;45.88
14383;BME280;7275;50.328;8.720;2023-12-04T00:03:44;99998.44;;;5.08;45.05
14383;BME280;7275;50.328;8.720;2023-12-04T00:06:12;99994.13;;;5.04;44.99
14383;BME280;7275;50.328;8.720;2023-12-04T00:08:40;99990.63;;;5.03;45.11
14383;BME280;7275;50.328;8.720;2023-12-04T00:11:08;99992.41;;;5.03;45.07
14383;BME280;7275;50.328;8.720;2023-12-04T00:13:35;99985.38;;;5.06;45.08
14383;BME280;7275;50.328;8.720;2023-12-04T00:16:05;99978.44;;;5.02;45.22
14383;BME280;7275;50.328;8.720;2023-12-04T00:18:33;99967.91;;;5.05;45.52
14383;BME280;7275;50.328;8.720;2023-12-04T00:21:01;99965.31;;;5.01;45.46
14383;BME280;7275;50.328;8.720;2023-12-04T00:23:28;99963.59;;;5.01;45.57
14383;BME280;7275;50.328;8.720;2023-12-04T00:25:56;99961.84;;;4.99;45.84
14383;BME280;7275;50.328;8.720;2023-12-04T00:28:24;99961.00;;;4.97;45.62
14383;BME280;7275;50.328;8.720;2023-12-04T00:30:51;99954.06;;;4.94;45.58
14383;BME280;7275;50.328;8.720;2023-12-04T00:33:20;99952.38;;;4.87;45.40
14383;BME280;7275;50.328;8.720;2023-12-04T00:35:48;99955.94;;;4.83;46.21
14383;BME280;7275;50.328;8.720;2023-12-04T00:38:16;99962.84;;;4.88;45.49
14383;BME280;7275;50.328;8.720;2023-12-04T00:40:43;99956.84;;;4.76;45.90
14383;BME280;7275;50.328;8.720;2023-12-04T00:43:11;99952.53;;;4.73;46.25
14383;BME280;7275;50.328;8.720;2023-12-04T00:45:38;99943.81;;;4.73;45.90
14383;BME280;7275;50.328;8.720;2023-12-04T00:48:06;99931.53;;;4.78;45.96
14383;BME280;7275;50.328;8.720;2023-12-04T00:50:35;99932.44;;;4.74;45.77
14383;BME280;7275;50.328;8.720;2023-12-04T00:53:03;99930.72;;;4.73;45.76
14383;BME280;7275;50.328;8.720;2023-12-04T00:55:31;99938.59;;;4.70;45.94
14383;BME280;7275;50.328;8.720;2023-12-04T00:57:58;99932.50;;;4.71;46.18
14383;BME280;7275;50.328;8.720;2023-12-04T01:00:26;99923.78;;;4.67;45.87
14383;BME280;7275;50.328;8.720;2023-12-04T01:02:54;99925.53;;;4.68;45.65
14383;BME280;7275;50.328;8.720;2023-12-04T01:05:21;99931.69;;;4.64;45.23
14383;BME280;7275;50.328;8.720;2023-12-04T01:07:50;99927.31;;;4.63;45.78
14383;BME280;7275;50.328;8.720;2023-12-04T01:10:18;99936.09;;;4.61;45.36
14383;BME280;7275;50.328;8.720;2023-12-04T01:12:46;99930.81;;;4.62;45.11
14383;BME280;7275;50.328;8.720;2023-12-04T01:15:14;99928.22;;;4.62;45.42
14383;BME280;7275;50.328;8.720;2023-12-04T01:17:41;99909.94;;;4.58;45.78
14383;BME280;7275;50.328;8.720;2023-12-04T01:20:10;99917.78;;;4.58;45.80
14383;BME280;7275;50.328;8.720;2023-12-04T01:22:37;99920.47;;;4.52;46.13
14383;BME280;7275;50.328;8.720;2023-12-04T01:25:08;99908.25;;;4.52;45.75
14383;BME280;7275;50.328;8.720;2023-12-04T01:27:36;99896.06;;;4.48;45.74
14383;BME280;7275;50.328;8.720;2023-12-04T01:30:05;99891.69;;;4.50;45.89
14383;BME280;7275;50.328;8.720;2023-12-04T01:32:34;99907.44;;;4.43;45.38
14383;BME280;7275;50.328;8.720;2023-12-04T01:35:02;99908.38;;;4.37;45.91
14383;BME280;7275;50.328;8.720;2023-12-04T01:37:29;99898.78;;;4.38;45.71
14383;BME280;7275;50.328;8.720;2023-12-04T01:39:57;99888.34;;;4.35;45.44
14383;BME280;7275;50.328;8.720;2023-12-04T01:42:26;99887.50;;;4.33;45.66
14383;BME280;7275;50.328;8.720;2023-12-04T01:44:54;99891.84;;;4.34;45.69
14383;BME280;7275;50.328;8.720;2023-12-04T01:47:22;99898.78;;;4.36;45.25
14383;BME280;7275;50.328;8.720;2023-12-04T01:49:51;99889.25;;;4.34;45.17
14383;BME280;7275;50.328;8.720;2023-12-04T01:52:18;99890.97;;;4.33;45.47
14383;BME280;7275;50.328;8.720;2023-12-04T01:54:46;99886.56;;;4.38;45.26
14383;BME280;7275;50.328;8.720;2023-12-04T01:57:14;99883.09;;;4.38;45.22
14383;BME280;7275;50.328;8.720;2023-12-04T01:59:44;99877.84;;;4.38;45.18
14383;BME280;7275;50.328;8.720;2023-12-04T02:02:12;99885.72;;;4.35;45.44
14383;BME280;7275;50.328;8.720;2023-12-04T02:04:40;99881.41;;;4.28;45.31
14383;BME280;7275;50.328;8.720;2023-12-04T02:07:08;99875.34;;;4.24;45.23
14383;BME280;7275;50.328;8.720;2023-12-04T02:09:37;99877.94;;;4.26;45.19
14383;BME280;7275;50.328;8.720;2023-12-04T02:12:05;99879.72;;;4.25;45.81
14383;BME280;7275;50.328;8.720;2023-12-04T02:14:33;99870.16;;;4.20;45.54
14383;BME280;7275;50.328;8.720;2023-12-04T02:17:05;99873.69;;;4.17;45.58
14383;BME280;7275;50.328;8.720;2023-12-04T02:19:33;99872.81;;;4.18;45.69
14383;BME280;7275;50.328;8.720;2023-12-04T02:22:00;99874.56;;;4.16;45.90
14383;BME280;7275;50.328;8.720;2023-12-04T02:24:29;99881.56;;;4.14;45.50
14383;BME280;7275;50.328;8.720;2023-12-04T02:27:04;99879.84;;;4.10;45.93
14383;BME280;7275;50.328;8.720;2023-12-04T02:29:38;99871.19;;;4.07;45.75
14383;BME280;7275;50.328;8.720;2023-12-04T02:32:07;99871.19;;;4.07;46.68
14383;BME280;7275;50.328;8.720;2023-12-04T02:34:40;99866.78;;;4.10;46.23
14383;BME280;7275;50.328;8.720;2023-12-04T02:37:09;99857.19;;;4.07;46.21
14383;BME280;7275;50.328;8.720;2023-12-04T02:39:39;99865.94;;;4.07;45.71
14383;BME280;7275;50.328;8.720;2023-12-04T02:42:07;99857.22;;;4.03;46.22
14383;BME280;7275;50.328;8.720;2023-12-04T02:44:35;99852.84;;;4.05;45.97
14383;BME280;7275;50.328;8.720;2023-12-04T02:47:03;99846.75;;;4.07;45.67
14383;BME280;7275;50.328;8.720;2023-12-04T02:49:30;99846.78;;;4.04;45.70
14383;BME280;7275;50.328;8.720;2023-12-04T02:51:58;99842.44;;;4.00;45.81
14383;BME280;7275;50.328;8.720;2023-12-04T02:54:26;99843.28;;;4.04;45.60
14383;BME280;7275;50.328;8.720;2023-12-04T02:56:55;99835.47;;;4.01;45.96
14383;BME280;7275;50.328;8.720;2023-12-04T02:59:22;99837.22;;;3.99;45.87
14383;BME280;7275;50.328;8.720;2023-12-04T03:01:50;99835.47;;;4.01;45.87
14383;BME280;7275;50.328;8.720;2023-12-04T03:04:18;99836.34;;;3.98;45.67
14383;BME280;7275;50.328;8.720;2023-12-04T03:06:46;99839.81;;;4.00;45.61
14383;BME280;7275;50.328;8.720;2023-12-04T03:09:14;99827.63;;;4.01;45.88
14383;BME280;7275;50.328;8.720;2023-12-04T03:11:42;99821.53;;;4.02;45.96
14383;BME280;7275;50.328;8.720;2023-12-04T03:14:11;99824.13;;;4.00;45.77
14383;BME280;7275;50.328;8.720;2023-12-04T03:16:38;99821.56;;;3.97;45.87
14383;BME280;7275;50.328;8.720;2023-12-04T03:19:06;99823.31;;;3.95;45.42
14383;BME280;7275;50.328;8.720;2023-12-04T03:21:34;99812.84;;;3.97;45.45
14383;BME280;7275;50.328;8.720;2023-12-04T03:24:01;99811.13;;;3.93;45.60
14383;BME280;7275;50.328;8.720;2023-12-04T03:26:29;99812.94;;;3.85;46.18
14383;BME280;7275;50.328;8.720;2023-12-04T03:28:57;99805.09;;;3.85;45.83
14383;BME280;7275;50.328;8.720;2023-12-04T03:31:25;99809.44;;;3.86;45.70
14383;BME280;7275;50.328;8.720;2023-12-04T03:33:54;99809.50;;;3.81;46.45
14383;BME280;7275;50.328;8.720;2023-12-04T03:36:22;99799.91;;;3.83;46.50
14383;BME280;7275;50.328;8.720;2023-12-04T03:38:49;99802.50;;;3.83;45.93
14383;BME280;7275;50.328;8.720;2023-12-04T03:41:17;99796.41;;;3.84;46.51
14383;BME280;7275;50.328;8.720;2023-12-04T03:43:45;99792.94;;;3.82;46.04
14383;BME280;7275;50.328;8.720;2023-12-04T03:46:12;99789.41;;;3.85;46.39
14383;BME280;7275;50.328;8.720;2023-12-04T03:48:41;99788.53;;;3.86;46.79
14383;BME280;7275;50.328;8.720;2023-12-04T03:51:09;99780.72;;;3.84;45.91
14383;BME280;7275;50.328;8.720;2023-12-04T03:53:36;99767.59;;;3.86;46.08
14383;BME280;7275;50.328;8.720;2023-12-04T03:56:05;99776.34;;;3.85;46.09
14383;BME280;7275;50.328;8.720;2023-12-04T03:58:32;99778.94;;;3.89;45.97
14383;BME280;7275;50.328;8.720;2023-12-04T04:01:00;99757.97;;;3.94;45.49
14383;BME280;7275;50.328;8.720;2023-12-04T04:03:27;99761.44;;;3.96;45.66
14383;BME280;7275;50.328;8.720;2023-12-04T04:05:56;99754.44;;;3.96;45.91
14383;BME280;7275;50.328;8.720;2023-12-04T04:08:24;99745.75;;;3.94;45.91
14383;BME280;7275;50.328;8.720;2023-12-04T04:10:52;99754.47;;;3.93;46.19
14383;BME280;7275;50.328;8.720;2023-12-04T04:13:20;99741.38;;;3.95;45.45
14383;BME280;7275;50.328;8.720;2023-12-04T04:15:47;99731.78;;;3.97;45.70
14383;BME280;7275;50.328;8.720;2023-12-04T04:18:15;99744.00;;;3.95;45.10
14383;BME280;7275;50.328;8.720;2023-12-04T04:20:43;99734.41;;;3.95;45.08
14383;BME280;7275;50.328;8.720;2023-12-04T04:23:12;99730.94;;;3.95;45.67
14383;BME280;7275;50.328;8.720;2023-12-04T04:25:39;99729.25;;;3.89;45.67
14383;BME280;7275;50.328;8.720;2023-12-04T04:28:07;99733.59;;;3.92;45.44
14383;BME280;7275;50.328;8.720;2023-12-04T04:30:34;99744.03;;;3.93;45.54
14383;BME280;7275;50.328;8.720;2023-12-04T04:33:02;99737.91;;;3.93;45.30
14383;BME280;7275;50.328;8.720;2023-12-04T04:35:31;99744.91;;;3.94;45.35
14383;BME280;7275;50.328;8.720;2023-12-04T04:38:00;99738.78;;;3.93;45.71
14383;BME280;7275;50.328;8.720;2023-12-04T04:40:29;99735.31;;;3.93;45.86
14383;BME280;7275;50.328;8.720;2023-12-04T04:42:56;99735.34;;;3.91;45.54
14383;BME280;7275;50.328;8.720;2023-12-04T04:45:24;99738.84;;;3.89;45.82
14383;BME280;7275;50.328;8.720;2023-12-04T04:47:51;99736.22;;;3.89;45.65
14383;BME280;7275;50.328;8.720;2023-12-04T04:50:19;99742.28;;;3.92;45.72
14383;BME280;7275;50.328;8.720;2023-12-04T04:52:47;99734.47;;;3.91;45.82
14383;BME280;7275;50.328;8.720;2023-12-04T04:55:14;99738.78;;;3.93;45.74
14383;BME280;7275;50.328;8.720;2023-12-04T04:58:03;99736.19;;;3.90;45.46
14383;BME280;7275;50.328;8.720;2023-12-04T05:00:31;99740.53;;;3.93;45.41
14383;BME280;7275;50.328;8.720;2023-12-04T05:02:59;99727.47;;;3.93;45.27
14383;BME280;7275;50.328;8.720;2023-12-04T05:05:26;99741.38;;;3.95;44.92
14383;BME280;7275;50.328;8.720;2023-12-04T05:07:54;99734.41;;;3.95;44.95
14383;BME280;7275;50.328;8.720;2023-12-04T05:10:21;99719.66;;;3.91;45.33
14383;BME280;7275;50.328;8.720;2023-12-04T05:12:49;99718.78;;;3.89;45.63
14383;BME280;7275;50.328;8.720;2023-12-04T05:15:18;99719.66;;;3.90;45.76
14383;BME280;7275;50.328;8.720;2023-12-04T05:17:45;99702.22;;;3.92;45.86
14383;BME280;7275;50.328;8.720;2023-12-04T05:20:13;99707.41;;;3.93;45.98
14383;BME280;7275;50.328;8.720;2023-12-04T05:22:41;99707.41;;;3.95;44.78
14383;BME280;7275;50.328;8.720;2023-12-04T05:25:08;99711.75;;;3.94;44.97
14383;BME280;7275;50.328;8.720;2023-12-04T05:27:36;99710.84;;;3.98;45.36
14383;BME280;7275;50.328;8.720;2023-12-04T05:30:05;99698.59;;;4.00;44.92
14383;BME280;7275;50.328;8.720;2023-12-04T05:32:34;99703.00;;;4.00;45.37
14383;BME280;7275;50.328;8.720;2023-12-04T05:35:02;99704.75;;;3.96;44.92
14383;BME280;7275;50.328;8.720;2023-12-04T05:37:30;99702.19;;;3.93;45.29
14383;BME280;7275;50.328;8.720;2023-12-04T05:39:58;99685.72;;;3.85;45.71
14383;BME280;7275;50.328;8.720;2023-12-04T05:42:26;99702.22;;;3.92;45.13
14383;BME280;7275;50.328;8.720;2023-12-04T05:44:53;99695.22;;;3.92;44.62
14383;BME280;7275;50.328;8.720;2023-12-04T05:47:23;99689.13;;;3.93;44.88
14383;BME280;7275;50.328;8.720;2023-12-04T05:49:52;99677.75;;;3.94;44.94
14383;BME280;7275;50.328;8.720;2023-12-04T05:52:20;99678.63;;;3.95;44.94
14383;BME280;7275;50.328;8.720;2023-12-04T05:54:47;99689.94;;;3.97;45.14
14383;BME280;7275;50.328;8.720;2023-12-04T05:57:15;99678.63;;;3.95;45.53
14383;BME280;7275;50.328;8.720;2023-12-04T05:59:43;99676.91;;;3.94;45.24
14383;BME280;7275;50.328;8.720;2023-12-04T06:02:10;99674.28;;;3.92;45.62
14383;BME280;7275;50.328;8.720;2023-12-04T06:04:39;99673.44;;;3.90;44.85
14383;BME280;7275;50.328;8.720;2023-12-04T06:07:08;99670.88;;;3.89;45.36
14383;BME280;7275;50.328;8.720;2023-12-04T06:09:36;99670.88;;;3.89;44.82
14383;BME280;7275;50.328;8.720;2023-12-04T06:12:04;99659.53;;;3.88;45.15
14383;BME280;7275;50.328;8.720;2023-12-04T06:14:35;99655.19;;;3.86;45.26
14383;BME280;7275;50.328;8.720;2023-12-04T06:17:03;99654.38;;;3.82;44.90
14383;BME280;7275;50.328;8.720;2023-12-04T06:19:32;99651.72;;;3.84;45.16
14383;BME280;7275;50.328;8.720;2023-12-04T06:21:59;99640.44;;;3.82;45.30
14383;BME280;7275;50.328;8.720;2023-12-04T06:24:30;99643.06;;;3.80;45.15
14383;BME280;7275;50.328;8.720;2023-12-04T06:26:58;99630.91;;;3.78;45.01
14383;BME280;7275;50.328;8.720;2023-12-04T06:29:26;99636.16;;;3.75;44.92
14383;BME280;7275;50.328;8.720;2023-12-04T06:31:54;99651.81;;;3.76;44.99
14383;BME280;7275;50.328;8.720;2023-12-04T06:34:23;99645.78;;;3.73;45.20
14383;BME280;7275;50.328;8.720;2023-12-04T06:36:51;99644.09;;;3.69;45.72
14383;BME280;7275;50.328;8.720;2023-12-04T06:39:19;99645.78;;;3.70;45.73
14383;BME280;7275;50.328;8.720;2023-12-04T06:41:49;99644.03;;;3.73;45.57
14383;BME280;7275;50.328;8.720;2023-12-04T06:44:17;99649.28;;;3.73;45.27
14383;BME280;7275;50.328;8.720;2023-12-04T06:46:48;99644.88;;;3.75;45.21
14383;BME280;7275;50.328;8.720;2023-12-04T06:49:17;99646.63;;;3.75;45.05
14383;BME280;7275;50.328;8.720;2023-12-04T06:51:45;99648.41;;;3.73;45.63
14383;BME280;7275;50.328;8.720;2023-12-04T06:54:13;99642.28;;;3.72;45.37
14383;BME280;7275;50.328;8.720;2023-12-04T06:56:40;99638.81;;;3.73;45.40
14383;BME280;7275;50.328;8.720;2023-12-04T06:59:09;99641.44;;;3.73;44.52
14383;BME280;7275;50.328;8.720;2023-12-04T07:01:37;99637.06;;;3.72;45.21
14383;BME280;7275;50.328;8.720;2023-12-04T07:04:04;99630.03;;;3.76;44.59
14383;BME280;7275;50.328;8.720;2023-12-04T07:06:36;99622.22;;;3.77;44.50
14383;BME280;7275;50.328;8.720;2023-12-04T07:09:04;99622.16;;;3.80;44.93
14383;BME280;7275;50.328;8.720;2023-12-04T07:11:33;99623.91;;;3.81;44.81
14383;BME280;7275;50.328;8.720;2023-12-04T07:14:01;99618.66;;;3.80;44.79
14383;BME280;7275;50.328;8.720;2023-12-04T07:16:30;99613.41;;;3.83;45.10
14383;BME280;7275;50.328;8.720;2023-12-04T07:18:58;99608.19;;;3.83;44.76
14383;BME280;7275;50.328;8.720;2023-12-04T07:21:26;99599.53;;;3.78;44.66
14383;BME280;7275;50.328;8.720;2023-12-04T07:23:53;99607.41;;;3.75;45.26
14383;BME280;7275;50.328;8.720;2023-12-04T07:26:21;99600.47;;;3.72;44.75
14383;BME280;7275;50.328;8.720;2023-12-04T07:28:48;99610.09;;;3.69;45.28
14383;BME280;7275;50.328;8.720;2023-12-04T07:31:16;99601.41;;;3.65;45.73
14383;BME280;7275;50.328;8.720;2023-12-04T07:33:45;99611.97;;;3.58;45.74
14383;BME280;7275;50.328;8.720;2023-12-04T07:36:13;99598.06;;;3.54;45.96
14383;BME280;7275;50.328;8.720;2023-12-04T07:38:40;99597.19;;;3.55;45.06
14383;BME280;7275;50.328;8.720;2023-12-04T07:41:08;99591.94;;;3.57;45.64
14383;BME280;7275;50.328;8.720;2023-12-04T07:43:36;99597.13;;;3.63;45.92
14383;BME280;7275;50.328;8.720;2023-12-04T07:46:03;99586.53;;;3.73;44.96
14383;BME280;7275;50.328;8.720;2023-12-04T07:48:31;99582.16;;;3.75;45.42
14383;BME280;7275;50.328;8.720;2023-12-04T07:51:00;99579.47;;;3.80;45.33
14383;BME280;7275;50.328;8.720;2023-12-04T07:53:28;99580.25;;;3.86;45.34
14383;BME280;7275;50.328;8.720;2023-12-04T07:55:56;99582.75;;;3.95;44.86
14383;BME280;7275;50.328;8.720;2023-12-04T07:58:23;99581.88;;;3.98;44.66
14383;BME280;7275;50.328;8.720;2023-12-04T08:00:51;99576.56;;;4.04;44.69
14383;BME280;7275;50.328;8.720;2023-12-04T08:03:18;99570.41;;;4.08;44.89
14383;BME280;7275;50.328;8.720;2023-12-04T08:05:46;99565.88;;;4.18;44.65
14383;BME280;7275;50.328;8.720;2023-12-04T08:08:15;99572.81;;;4.23;44.64
14383;BME280;7275;50.328;8.720;2023-12-04T08:10:43;99570.97;;;4.28;44.49
14383;BME280;7275;50.328;8.720;2023-12-04T08:13:11;99586.59;;;4.33;44.90
14383;BME280;7275;50.328;8.720;2023-12-04T08:15:39;99580.50;;;4.34;44.72
14383;BME280;7275;50.328;8.720;2023-12-04T08:18:06;99576.16;;;4.33;44.29
14383;BME280;7275;50.328;8.720;2023-12-04T08:20:34;99576.03;;;4.42;44.55
14383;BME280;7275;50.328;8.720;2023-12-04T08:23:06;99573.34;;;4.45;44.92
14383;BME280;7275;50.328;8.720;2023-12-04T08:25:35;99568.84;;;4.53;44.39
14383;BME280;7275;50.328;8.720;2023-12-04T08:28:05;99565.25;;;4.60;44.00
14383;BME280;7275;50.328;8.720;2023-12-04T08:30:33;99560.91;;;4.60;44.46
14383;BME280;7275;50.328;8.720;2023-12-04T08:33:00;99554.66;;;4.67;44.22
14383;BME280;7275;50.328;8.720;2023-12-04T08:35:28;99551.09;;;4.73;44.02
14383;BME280;7275;50.328;8.720;2023-12-04T08:37:56;99538.75;;;4.81;43.83
14383;BME280;7275;50.328;8.720;2023-12-04T08:40:24;99546.41;;;4.92;43.77
14383;BME280;7275;50.328;8.720;2023-12-04T08:42:52;99534.88;;;5.02;43.77
14383;BME280;7275;50.328;8.720;2023-12-04T08:45:20;99539.25;;;5.03;43.82
14383;BME280;7275;50.328;8.720;2023-12-04T08:47:48;99533.88;;;5.10;43.49
14383;BME280;7275;50.328;8.720;2023-12-04T08:50:16;99529.38;;;5.17;43.95
14383;BME280;7275;50.328;8.720;2023-12-04T08:52:43;99524.06;;;5.21;43.55
14383;BME280;7275;50.328;8.720;2023-12-04T08:55:11;99522.25;;;5.25;43.70
14383;BME280;7275;50.328;8.720;2023-12-04T08:57:39;99513.47;;;5.27;43.16
14383;BME280;7275;50.328;8.720;2023-12-04T09:00:09;99502.06;;;5.30;43.51
14383;BME280;7275;50.328;8.720;2023-12-04T09:02:37;99501.91;;;5.37;43.39
14383;BME280;7275;50.328;8.720;2023-12-04T09:05:15;99496.53;;;5.43;43.46
14383;BME280;7275;50.328;8.720;2023-12-04T09:07:43;99492.09;;;5.47;43.31
14383;BME280;7275;50.328;8.720;2023-12-04T09:10:14;99492.91;;;5.50;42.87
14383;BME280;7275;50.328;8.720;2023-12-04T09:13:01;99484.19;;;5.50;42.81
14383;BME280;7275;50.328;8.720;2023-12-04T09:15:30;99487.63;;;5.52;42.90
14383;BME280;7275;50.328;8.720;2023-12-04T09:17:58;99486.56;;;5.60;42.84
14383;BME280;7275;50.328;8.720;2023-12-04T09:20:26;99478.00;;;5.52;42.62
14383;BME280;7275;50.328;8.720;2023-12-04T09:22:54;99493.41;;;5.67;42.76
14383;BME280;7275;50.328;8.720;2023-12-04T09:25:32;99488.16;;;5.69;42.55
14383;BME280;7275;50.328;8.720;2023-12-04T09:28:00;99487.19;;;5.73;42.67
14383;BME280;7275;50.328;8.720;2023-12-04T09:30:28;99487.09;;;5.76;42.41
14383;BME280;7275;50.328;8.720;2023-12-04T09:32:58;99493.25;;;5.75;42.12
14383;BME280;7275;50.328;8.720;2023-12-04T09:35:26;99486.13;;;5.82;42.55
14383;BME280;7275;50.328;8.720;2023-12-04T09:37:53;99489.53;;;5.87;42.01
14383;BME280;7275;50.328;8.720;2023-12-04T09:40:21;99497.34;;;5.90;42.37
14383;BME280;7275;50.328;8.720;2023-12-04T09:42:49;99493.81;;;5.91;42.37
14383;BME280;7275;50.328;8.720;2023-12-04T09:45:18;99491.09;;;5.95;42.44
14383;BME280;7275;50.328;8.720;2023-12-04T09:47:47;99478.88;;;5.94;42.20
14383;BME280;7275;50.328;8.720;2023-12-04T09:50:17;99482.28;;;5.98;42.26
14383;BME280;7275;50.328;8.720;2023-12-04T09:52:48;99477.91;;;5.98;41.94
14383;BME280;7275;50.328;8.720;2023-12-04T09:55:16;99470.94;;;5.97;42.02
14383;BME280;7275;50.328;8.720;2023-12-04T09:57:45;99463.00;;;6.00;41.83
14383;BME280;7275;50.328;8.720;2023-12-04T10:00:13;99456.06;;;5.98;41.86
14383;BME280;7275;50.328;8.720;2023-12-04T10:02:41;99457.78;;;5.99;41.88
14383;BME280;7275;50.328;8.720;2023-12-04T10:05:09;99458.69;;;5.98;42.01
14383;BME280;7275;50.328;8.720;2023-12-04T10:07:39;99450.84;;;5.96;41.86
14383;BME280;7275;50.328;8.720;2023-12-04T10:10:07;99449.06;;;5.98;42.28
14383;BME280;7275;50.328;8.720;2023-12-04T10:12:35;99453.38;;;5.99;42.09
14383;BME280;7275;50.328;8.720;2023-12-04T10:15:05;99448.22;;;5.96;41.74
14383;BME280;7275;50.328;8.720;2023-12-04T10:17:34;99455.16;;;5.99;41.80
14383;BME280;7275;50.328;8.720;2023-12-04T10:20:05;99450.03;;;5.94;41.71
14383;BME280;7275;50.328;8.720;2023-12-04T10:22:53;99448.19;;;5.98;41.41
14383;BME280;7275;50.328;8.720;2023-12-04T10:25:22;99431.00;;;5.83;41.78
14383;BME280;7275;50.328;8.720;2023-12-04T10:27:52;99450.22;;;5.85;41.63
14383;BME280;7275;50.328;8.720;2023-12-04T10:30:24;99440.63;;;5.83;41.56
14383;BME280;7275;50.328;8.720;2023-12-04T10:32:56;99439.00;;;5.77;41.58
14383;BME280;7275;50.328;8.720;2023-12-04T10:35:29;99429.44;;;5.75;41.93
14383;BME280;7275;50.328;8.720;2023-12-04T10:37:59;99426.16;;;5.66;41.96
14383;BME280;7275;50.328;8.720;2023-12-04T10:40:28;99419.00;;;5.72;42.08
14383;BME280;7275;50.328;8.720;2023-12-04T10:43:10;99415.63;;;5.68;42.08
14383;BME280;7275;50.328;8.720;2023-12-04T10:45:39;99409.63;;;5.61;41.94
14383;BME280;7275;50.328;8.720;2023-12-04T10:48:08;99408.66;;;5.67;42.00
14383;BME280;7275;50.328;8.720;2023-12-04T10:50:38;99399.06;;;5.66;42.17
14383;BME280;7275;50.328;8.720;2023-12-04T10:53:08;99394.63;;;5.68;42.14
14383;BME280;7275;50.328;8.720;2023-12-04T10:55:37;99386.81;;;5.66;42.13
14383;BME280;7275;50.328;8.720;2023-12-04T10:58:06;99385.03;;;5.68;42.07
14383;BME280;7275;50.328;8.720;2023-12-04T11:00:38;99397.31;;;5.66;41.84
14383;BME280;7275;50.328;8.720;2023-12-04T11:03:08;99388.66;;;5.61;42.43
14383;BME280;7275;50.328;8.720;2023-12-04T11:05:37;99386.81;;;5.66;41.70
14383;BME280;7275;50.328;8.720;2023-12-04T11:08:08;99394.81;;;5.60;41.86
14383;BME280;7275;50.328;8.720;2023-12-04T11:10:48;99392.84;;;5.70;42.27
14383;BME280;7275;50.328;8.720;2023-12-04T11:13:17;99395.50;;;5.68;42.10
14383;BME280;7275;50.328;8.720;2023-12-04T11:15:50;99390.25;;;5.68;43.01
14383;BME280;7275;50.328;8.720;2023-12-04T11:18:22;99383.38;;;5.64;42.00
14383;BME280;7275;50.328;8.720;2023-12-04T11:20:55;99371.94;;;5.67;42.63
14383;BME280;7275;50.328;8.720;2023-12-04T11:23:26;99369.25;;;5.70;42.36
14383;BME280;7275;50.328;8.720;2023-12-04T11:25:55;99370.94;;;5.73;42.90
14383;BME280;7275;50.328;8.720;2023-12-04T11:28:23;99367.38;;;5.75;42.62
14383;BME280;7275;50.328;8.720;2023-12-04T11:30:52;99375.22;;;5.77;42.62
14383;BME280;7275;50.328;8.720;2023-12-04T11:33:19;99362.88;;;5.82;42.49
14383;BME280;7275;50.328;8.720;2023-12-04T11:35:49;99365.13;;;5.97;42.62
14383;BME280;7275;50.328;8.720;2023-12-04T11:38:17;99343.16;;;6.02;42.30
14383;BME280;7275;50.328;8.720;2023-12-04T11:40:47;99347.53;;;6.02;42.49
14383;BME280;7275;50.328;8.720;2023-12-04T11:43:21;99336.09;;;6.04;41.98
14383;BME280;7275;50.328;8.720;2023-12-04T11:45:49;99340.84;;;5.90;42.33
14383;BME280;7275;50.328;8.720;2023-12-04T11:48:22;99331.03;;;5.97;42.14
14383;BME280;7275;50.328;8.720;2023-12-04T11:50:51;99330.88;;;6.04;42.20
14383;BME280;7275;50.328;8.720;2023-12-04T11:53:18;99334.69;;;5.91;42.01
14383;BME280;7275;50.328;8.720;2023-12-04T11:55:47;99328.78;;;5.82;42.01
14383;BME280;7275;50.328;8.720;2023-12-04T11:58:16;99320.00;;;5.83;42.14
14383;BME280;7275;50.328;8.720;2023-12-04T12:00:43;99319.16;;;5.84;42.17
14383;BME280;7275;50.328;8.720;2023-12-04T12:03:14;99323.94;;;5.65;42.89
14383;BME280;7275;50.328;8.720;2023-12-04T12:05:49;99309.56;;;5.44;42.96
14383;BME280;7275;50.328;8.720;2023-12-04T12:08:19;99310.09;;;5.58;43.19
14383;BME280;7275;50.328;8.720;2023-12-04T12:10:49;99291.09;;;5.50;43.22
14383;BME280;7275;50.328;8.720;2023-12-04T12:13:19;99275.16;;;5.58;42.55
14383;BME280;7275;50.328;8.720;2023-12-04T12:15:47;99267.09;;;5.65;42.92
14383;BME280;7275;50.328;8.720;2023-12-04T12:18:17;99264.47;;;5.67;43.06
14383;BME280;7275;50.328;8.720;2023-12-04T12:20:45;99258.41;;;5.65;43.95
14383;BME280;7275;50.328;8.720;2023-12-04T12:23:12;99264.47;;;5.65;44.96
14383;BME280;7275;50.328;8.720;2023-12-04T12:25:40;99250.69;;;5.59;44.83
14383;BME280;7275;50.328;8.720;2023-12-04T12:28:10;99248.19;;;5.53;44.97
14383;BME280;7275;50.328;8.720;2023-12-04T12:30:37;99254.91;;;5.29;46.10
14383;BME280;7275;50.328;8.720;2023-12-04T12:33:05;99240.00;;;5.31;46.51
14383;BME280;7275;50.328;8.720;2023-12-04T12:35:35;99239.31;;;5.23;46.18
14383;BME280;7275;50.328;8.720;2023-12-04T12:38:03;99220.03;;;5.26;46.67
14383;BME280;7275;50.328;8.720;2023-12-04T12:40:30;99212.94;;;5.31;46.84
14383;BME280;7275;50.328;8.720;2023-12-04T12:43:05;99217.28;;;5.30;47.12
14383;BME280;7275;50.328;8.720;2023-12-04T12:45:42;99217.41;;;5.26;47.51
14383;BME280;7275;50.328;8.720;2023-12-04T12:48:10;99207.78;;;5.26;47.34
14383;BME280;7275;50.328;8.720;2023-12-04T12:50:39;99205.97;;;5.30;47.76
14383;BME280;7275;50.328;8.720;2023-12-04T12:53:06;99198.22;;;5.24;47.95
14383;BME280;7275;50.328;8.720;2023-12-04T12:55:37;99196.44;;;5.26;47.81
14383;BME280;7275;50.328;8.720;2023-12-04T12:58:05;99195.66;;;5.22;48.19
14383;BME280;7275;50.328;8.720;2023-12-04T13:00:34;99202.66;;;5.22;48.57
14383;BME280;7275;50.328;8.720;2023-12-04T13:03:03;99203.88;;;5.07;49.27
14383;BME280;7275;50.328;8.720;2023-12-04T13:05:32;99204.16;;;4.95;50.12
14383;BME280;7275;50.328;8.720;2023-12-04T13:08:01;99203.97;;;5.04;49.22
14383;BME280;7275;50.328;8.720;2023-12-04T13:10:29;99193.66;;;4.97;49.19
14383;BME280;7275;50.328;8.720;2023-12-04T13:12:56;99187.81;;;4.85;50.55
14383;BME280;7275;50.328;8.720;2023-12-04T13:15:26;99168.56;;;4.86;50.51
14383;BME280;7275;50.328;8.720;2023-12-04T13:17:54;99158.09;;;4.86;50.55
14383;BME280;7275;50.328;8.720;2023-12-04T13:20:24;99165.81;;;4.93;49.73
14383;BME280;7275;50.328;8.720;2023-12-04T13:22:51;99157.22;;;4.86;49.82
14383;BME280;7275;50.328;8.720;2023-12-04T13:25:19;99166.88;;;4.85;49.62
14383;BME280;7275;50.328;8.720;2023-12-04T13:27:47;99160.97;;;4.76;50.38
14383;BME280;7275;50.328;8.720;2023-12-04T13:30:15;99143.84;;;4.63;51.84